Dades de l'estació automàtica la Pobla de Segur
Resum diari
21:30 TU| Temperatura mitjana | 14.5 °C | |
|---|---|---|
| Temperatura màxima | 22.5 °C | 14:53 TU |
| Temperatura mínima | 6.8 °C | 5:31 TU |
| Humitat relativa mitjana | 64% | |
| Precipitació acumulada | 12.7 mm | |
| Ratxa màxima del vent (10 m) | 32.4 km/h - 137º | 20:34 TU |
| Pressió atmosfèrica mitjana | 1012.4 hPa | |
| Irradiació solar global | 25.9 MJ/m2 | |
El tram horari està expressat en Temps Universal (TU). Cal sumar una hora en horari d'hivern i dues en horari d'estiu per passar a l'hora oficial.
la Pobla de Segur
| Municipi | La Pobla de Segur |
|---|---|
| Comarca | Pallars Jussà |
| Altitud | 508 m |
| Data alta | 18.11.2016 |
| Estat actual | Operativa |
| Període TU |
TM °C |
TX °C |
TN °C |
HRM % |
PPT mm |
VVM (10 m) km/h |
DVM (10 m) graus |
VVX (10 m) km/h |
PM hPa |
RS W/m2 |
|---|---|---|---|---|---|---|---|---|---|---|
| 00:00 - 00:30 | 9.9 | 10.2 | 9.7 | 79 | 0.0 | 8.3 | 324 | 17.3 | 1014.5 | 0 |
| 00:30 - 01:00 | 9.4 | 9.7 | 9.1 | 82 | 0.0 | 7.2 | 327 | 16.2 | 1014.6 | 0 |
| 01:00 - 01:30 | 9.0 | 9.3 | 8.8 | 83 | 0.0 | 10.1 | 332 | 17.6 | 1014.6 | 0 |
| 01:30 - 02:00 | 8.6 | 8.8 | 8.3 | 85 | 0.0 | 10.1 | 344 | 18.0 | 1014.4 | 0 |
| 02:00 - 02:30 | 8.5 | 8.7 | 8.4 | 85 | 0.0 | 8.6 | 335 | 18.7 | 1014.7 | 0 |
| 02:30 - 03:00 | 8.4 | 8.7 | 8.1 | 85 | 0.0 | 7.9 | 337 | 16.2 | 1014.8 | 0 |
| 03:00 - 03:30 | 8.0 | 8.1 | 7.9 | 86 | 0.0 | 9.4 | 330 | 18.7 | 1014.9 | 0 |
| 03:30 - 04:00 | 7.9 | 8.1 | 7.8 | 86 | 0.0 | 9.0 | 337 | 18.7 | 1014.8 | 0 |
| 04:00 - 04:30 | 7.8 | 8.0 | 7.7 | 85 | 0.0 | 8.3 | 351 | 17.6 | 1014.8 | 0 |
| 04:30 - 05:00 | 7.7 | 7.8 | 7.6 | 85 | 0.0 | 10.4 | 338 | 20.5 | 1014.9 | 3 |
| 05:00 - 05:30 | 7.4 | 7.7 | 6.9 | 87 | 0.0 | 6.5 | 325 | 15.8 | 1015.2 | 16 |
| 05:30 - 06:00 | 7.6 | 8.5 | 6.8 | 87 | 0.0 | 3.2 | 332 | 8.3 | 1015.4 | 103 |
| 06:00 - 06:30 | 9.2 | 10.2 | 8.3 | 81 | 0.0 | 2.5 | 32 | 9.0 | 1015.3 | 228 |
| 06:30 - 07:00 | 11.0 | 12.2 | 10.2 | 74 | 0.0 | 2.2 | 46 | 5.0 | 1014.9 | 328 |
| 07:00 - 07:30 | 12.4 | 12.9 | 12.1 | 69 | 0.0 | 3.6 | 113 | 7.2 | 1014.7 | 414 |
| 07:30 - 08:00 | 12.9 | 13.5 | 12.4 | 69 | 0.0 | 3.6 | 155 | 9.0 | 1014.3 | 500 |
| 08:00 - 08:30 | 13.7 | 14.5 | 13.1 | 65 | 0.0 | 4.7 | 165 | 8.6 | 1014.0 | 616 |
| 08:30 - 09:00 | 15.0 | 15.6 | 14.6 | 60 | 0.0 | 4.7 | 147 | 9.7 | 1013.7 | 692 |
| 09:00 - 09:30 | 16.2 | 16.6 | 15.9 | 56 | 0.0 | 4.7 | 146 | 9.4 | 1013.3 | 782 |
| 09:30 - 10:00 | 16.8 | 17.4 | 16.5 | 57 | 0.0 | 5.4 | 162 | 9.7 | 1013.0 | 785 |
| 10:00 - 10:30 | 17.7 | 18.3 | 17.1 | 48 | 0.0 | 7.2 | 149 | 12.2 | 1012.4 | 904 |
| 10:30 - 11:00 | 18.6 | 19.1 | 18.3 | 47 | 0.0 | 7.6 | 150 | 15.5 | 1012.0 | 919 |
| 11:00 - 11:30 | 19.3 | 19.7 | 18.6 | 45 | 0.0 | 6.8 | 146 | 13.3 | 1011.4 | 923 |
| 11:30 - 12:00 | 19.9 | 20.3 | 19.4 | 44 | 0.0 | 7.2 | 152 | 16.2 | 1010.8 | 934 |
| 12:00 - 12:30 | 20.4 | 20.7 | 20.1 | 41 | 0.0 | 7.9 | 152 | 15.5 | 1010.3 | 980 |
| 12:30 - 13:00 | 20.4 | 20.9 | 20.2 | 39 | 0.0 | 9.4 | 142 | 18.7 | 1010.0 | 953 |
| 13:00 - 13:30 | 21.1 | 21.6 | 20.5 | 38 | 0.0 | 7.9 | 163 | 18.7 | 1009.5 | 908 |
| 13:30 - 14:00 | 21.4 | 21.7 | 21.0 | 37 | 0.0 | 11.5 | 175 | 24.5 | 1009.1 | 848 |
| 14:00 - 14:30 | 21.6 | 22.0 | 20.8 | 35 | 0.0 | 8.6 | 181 | 22.3 | 1008.8 | 791 |
| 14:30 - 15:00 | 22.0 | 22.5 | 21.4 | 34 | 0.0 | 7.9 | 177 | 20.9 | 1008.5 | 764 |
| 15:00 - 15:30 | 20.9 | 21.7 | 19.9 | 35 | 0.0 | 6.8 | 212 | 18.0 | 1008.4 | 285 |
| 15:30 - 16:00 | 19.6 | 19.8 | 19.3 | 40 | 0.0 | 4.0 | 199 | 11.9 | 1008.5 | 128 |
| 16:00 - 16:30 | 19.3 | 19.5 | 19.0 | 44 | 0.0 | 2.9 | 275 | 8.3 | 1008.6 | 126 |
| 16:30 - 17:00 | 19.0 | 19.2 | 18.6 | 47 | 0.0 | 3.2 | 277 | 8.6 | 1008.8 | 114 |
| 17:00 - 17:30 | 18.6 | 18.9 | 18.2 | 48 | 0.0 | 6.8 | 325 | 12.2 | 1009.0 | 222 |
| 17:30 - 18:00 | 18.3 | 18.5 | 18.2 | 51 | 0.0 | 4.0 | 1 | 11.2 | 1009.4 | 121 |
| 18:00 - 18:30 | 18.1 | 18.5 | 17.3 | 51 | 0.0 | 1.4 | 153 | 5.8 | 1009.8 | 22 |
| 18:30 - 19:00 | 17.0 | 17.6 | 16.5 | 55 | 0.0 | 4.0 | 194 | 13.3 | 1010.4 | 1 |
| 19:00 - 19:30 | 17.3 | 17.6 | 16.9 | 55 | 0.0 | 10.8 | 181 | 25.6 | 1010.9 | 0 |
| 19:30 - 20:00 | 16.4 | 16.9 | 15.5 | 61 | 0.0 | 7.2 | 184 | 23.4 | 1011.7 | 0 |
| 20:00 - 20:30 | 13.5 | 15.5 | 10.9 | 72 | 1.3 | 12.2 | 161 | 27.0 | 1012.9 | 0 |
| 20:30 - 21:00 | 10.5 | 11.0 | 10.2 | 96 | 8.4 | 8.6 | 167 | 32.4 | 1014.6 | 0 |
| 21:00 - 21:30 | 10.4 | 10.5 | 10.3 | 99 | 2.1 | 4.3 | 331 | 7.6 | 1015.6 | 0 |
| 21:30 - 22:00 | 10.6 | 10.7 | 10.5 | 100 | 0.9 | 4.7 | 327 | 10.8 | 1015.7 | 0 |
Les dades en taronja només han passat un control de qualitat automàtic. Resta pendent la seva validació definitiva.